Accueil
METAR-TAF:

METAR-TAF

Aéroports :

Pensacola Regional Airport

Pensacola, Floride, États-Unis

latitude: 30-28-41N, longitude: 087-11-13W, altitude: 36 m

Observation

Le bulletin a été fait il y a 39 minutes, à 17:53 UTC
Vent 8 kt de sud
Température 26°C
Humidité 58%
Pression 1016 hPa
Visibilité: 16.1 km
Ciel clair

METAR: KPNS 281753Z 17008KT 10SM CLR 26/17 A3001 RMK AO2 SLP164 T02610172 10261 20178 58011

Heure: 13:32 (18:32 UTC)

Prévision

Le bulletin a été fait il y a 53 minutes, à 17:39 UTC
Prévision valable du 28 à 18 UTC au 29 à 18 UTC
Vent 8 kt de sud
Visibilité: 10 km
Ciel clair
A partir de 28 à 2200 UTC
Vent 10 kt de sud/sud-ouest
Visibilité: 10 km
Quelques nuages à une hauteur de 6000 ft
Quelques nuages à une hauteur de 25000 ft
A partir de 29 à 1200 UTC
Vent 4 kt de ouest/nord-ouest
Visibilité: 10 km
Ciel clair

TAF: KPNS 281739Z 2818/2918 18008KT P6SM SKC FM282200 20010KT P6SM FEW060 FEW250 FM291200 30004KT P6SM SKC

Observations et prévisions météorologiques de plus de 4000 aéroports (messages METAR et TAF).

Les stations disponibles sont représentées par des disques jaunes et rouges sur la carte.

Passer la souris dessus pour voir le nom de la station.

Cliquer dessus pour voir les observations et prévisions météorologiques.

Pour changer de carte: cliquez sur les boutons verts avec une croix noire pour zoomer, sur le bouton vert avec un tiret pour effectuer un zoom arrière, ou sur les flèches vertes pour les cartes adjacentes.


METAR-TAF: